sensor_id;sensor_type;location;lat;lon;timestamp;P1;durP1;ratioP1;P2;durP2;ratioP2
71104;SDS011;58760;48.716;8.962;2023-01-01T00:01:24;22.88;;;14.50;;
71104;SDS011;58760;48.716;8.962;2023-01-01T00:03:50;26.13;;;15.75;;
71104;SDS011;58760;48.716;8.962;2023-01-01T00:06:16;25.50;;;16.67;;
71104;SDS011;58760;48.716;8.962;2023-01-01T00:08:42;37.40;;;21.95;;
71104;SDS011;58760;48.716;8.962;2023-01-01T00:11:08;74.30;;;43.25;;
71104;SDS011;58760;48.716;8.962;2023-01-01T00:13:35;75.95;;;52.53;;
71104;SDS011;58760;48.716;8.962;2023-01-01T00:18:30;72.43;;;48.75;;
71104;SDS011;58760;48.716;8.962;2023-01-01T00:21:05;63.25;;;42.85;;
71104;SDS011;58760;48.716;8.962;2023-01-01T00:23:32;57.38;;;36.88;;
71104;SDS011;58760;48.716;8.962;2023-01-01T00:25:58;42.65;;;26.48;;
71104;SDS011;58760;48.716;8.962;2023-01-01T00:28:24;38.58;;;24.15;;
71104;SDS011;58760;48.716;8.962;2023-01-01T00:30:49;40.63;;;24.05;;
71104;SDS011;58760;48.716;8.962;2023-01-01T00:33:15;44.40;;;26.50;;
71104;SDS011;58760;48.716;8.962;2023-01-01T00:35:40;42.67;;;27.42;;
71104;SDS011;58760;48.716;8.962;2023-01-01T00:38:05;39.03;;;24.35;;
71104;SDS011;58760;48.716;8.962;2023-01-01T00:40:31;40.72;;;26.05;;
71104;SDS011;58760;48.716;8.962;2023-01-01T00:42:56;35.45;;;22.63;;
71104;SDS011;58760;48.716;8.962;2023-01-01T00:45:22;31.05;;;19.60;;
71104;SDS011;58760;48.716;8.962;2023-01-01T00:47:48;36.45;;;20.98;;
71104;SDS011;58760;48.716;8.962;2023-01-01T00:50:15;34.92;;;20.88;;
71104;SDS011;58760;48.716;8.962;2023-01-01T00:52:40;35.53;;;22.23;;
71104;SDS011;58760;48.716;8.962;2023-01-01T00:55:06;35.40;;;21.92;;
71104;SDS011;58760;48.716;8.962;2023-01-01T00:57:32;28.52;;;18.85;;
71104;SDS011;58760;48.716;8.962;2023-01-01T00:59:57;30.60;;;18.55;;
71104;SDS011;58760;48.716;8.962;2023-01-01T01:02:23;32.17;;;19.42;;
71104;SDS011;58760;48.716;8.962;2023-01-01T01:04:48;27.80;;;18.17;;
71104;SDS011;58760;48.716;8.962;2023-01-01T01:07:13;28.33;;;17.52;;
71104;SDS011;58760;48.716;8.962;2023-01-01T01:09:39;30.13;;;16.83;;
71104;SDS011;58760;48.716;8.962;2023-01-01T01:12:04;27.45;;;17.90;;
71104;SDS011;58760;48.716;8.962;2023-01-01T01:14:30;26.40;;;16.77;;
71104;SDS011;58760;48.716;8.962;2023-01-01T01:16:55;24.23;;;15.35;;
71104;SDS011;58760;48.716;8.962;2023-01-01T01:19:20;24.48;;;14.75;;
71104;SDS011;58760;48.716;8.962;2023-01-01T01:21:48;25.02;;;14.57;;
71104;SDS011;58760;48.716;8.962;2023-01-01T01:24:13;26.60;;;15.82;;
71104;SDS011;58760;48.716;8.962;2023-01-01T01:26:39;25.13;;;14.77;;
71104;SDS011;58760;48.716;8.962;2023-01-01T01:29:04;24.92;;;14.98;;
71104;SDS011;58760;48.716;8.962;2023-01-01T01:31:31;25.05;;;14.85;;
71104;SDS011;58760;48.716;8.962;2023-01-01T01:33:57;29.73;;;16.52;;
71104;SDS011;58760;48.716;8.962;2023-01-01T01:36:22;23.58;;;13.88;;
71104;SDS011;58760;48.716;8.962;2023-01-01T01:38:49;23.10;;;14.95;;
71104;SDS011;58760;48.716;8.962;2023-01-01T01:41:16;21.48;;;13.00;;
71104;SDS011;58760;48.716;8.962;2023-01-01T01:46:30;22.67;;;14.25;;
71104;SDS011;58760;48.716;8.962;2023-01-01T01:49:08;21.92;;;12.65;;
71104;SDS011;58760;48.716;8.962;2023-01-01T01:51:40;19.85;;;11.63;;
71104;SDS011;58760;48.716;8.962;2023-01-01T01:54:08;18.98;;;12.18;;
71104;SDS011;58760;48.716;8.962;2023-01-01T01:59:11;23.60;;;11.82;;
71104;SDS011;58760;48.716;8.962;2023-01-01T02:01:37;19.70;;;11.50;;
71104;SDS011;58760;48.716;8.962;2023-01-01T02:04:03;22.00;;;13.05;;
71104;SDS011;58760;48.716;8.962;2023-01-01T02:08:57;23.42;;;13.10;;
71104;SDS011;58760;48.716;8.962;2023-01-01T02:11:25;22.55;;;13.13;;
71104;SDS011;58760;48.716;8.962;2023-01-01T02:13:51;23.52;;;13.93;;
71104;SDS011;58760;48.716;8.962;2023-01-01T02:16:19;21.05;;;14.13;;
71104;SDS011;58760;48.716;8.962;2023-01-01T02:21:31;23.23;;;12.88;;
71104;SDS011;58760;48.716;8.962;2023-01-01T02:24:11;21.63;;;11.55;;
71104;SDS011;58760;48.716;8.962;2023-01-01T02:26:49;18.63;;;10.85;;
71104;SDS011;58760;48.716;8.962;2023-01-01T02:32:24;17.88;;;10.50;;
71104;SDS011;58760;48.716;8.962;2023-01-01T02:34:57;16.75;;;10.05;;
71104;SDS011;58760;48.716;8.962;2023-01-01T02:37:49;16.15;;;8.70;;
71104;SDS011;58760;48.716;8.962;2023-01-01T02:40:17;16.63;;;8.25;;
71104;SDS011;58760;48.716;8.962;2023-01-01T02:42:46;17.13;;;8.73;;
71104;SDS011;58760;48.716;8.962;2023-01-01T02:45:13;14.73;;;6.50;;
71104;SDS011;58760;48.716;8.962;2023-01-01T02:47:38;11.63;;;6.07;;
71104;SDS011;58760;48.716;8.962;2023-01-01T02:50:11;13.65;;;6.80;;
71104;SDS011;58760;48.716;8.962;2023-01-01T02:58:14;11.13;;;5.40;;
71104;SDS011;58760;48.716;8.962;2023-01-01T03:01:28;13.18;;;5.60;;
71104;SDS011;58760;48.716;8.962;2023-01-01T03:20:23;9.00;;;3.42;;
71104;SDS011;58760;48.716;8.962;2023-01-01T03:22:52;8.30;;;3.75;;
71104;SDS011;58760;48.716;8.962;2023-01-01T03:25:24;6.95;;;2.85;;
71104;SDS011;58760;48.716;8.962;2023-01-01T03:28:02;7.25;;;3.05;;
71104;SDS011;58760;48.716;8.962;2023-01-01T03:30:32;7.60;;;3.35;;
71104;SDS011;58760;48.716;8.962;2023-01-01T03:33:02;7.60;;;3.13;;
71104;SDS011;58760;48.716;8.962;2023-01-01T03:35:39;6.72;;;2.88;;
71104;SDS011;58760;48.716;8.962;2023-01-01T03:38:21;8.80;;;3.67;;
71104;SDS011;58760;48.716;8.962;2023-01-01T03:40:55;9.55;;;3.42;;
71104;SDS011;58760;48.716;8.962;2023-01-01T03:43:30;8.55;;;3.45;;
71104;SDS011;58760;48.716;8.962;2023-01-01T03:46:03;7.47;;;3.53;;
71104;SDS011;58760;48.716;8.962;2023-01-01T03:48:31;8.93;;;3.10;;
71104;SDS011;58760;48.716;8.962;2023-01-01T03:51:20;8.93;;;3.17;;
71104;SDS011;58760;48.716;8.962;2023-01-01T03:53:53;7.70;;;3.22;;
71104;SDS011;58760;48.716;8.962;2023-01-01T03:59:14;10.07;;;3.75;;
71104;SDS011;58760;48.716;8.962;2023-01-01T04:01:46;6.82;;;2.90;;
71104;SDS011;58760;48.716;8.962;2023-01-01T04:04:15;7.45;;;2.97;;
71104;SDS011;58760;48.716;8.962;2023-01-01T04:06:42;8.27;;;3.35;;
71104;SDS011;58760;48.716;8.962;2023-01-01T04:09:11;7.68;;;3.00;;
71104;SDS011;58760;48.716;8.962;2023-01-01T04:11:41;6.30;;;2.80;;
71104;SDS011;58760;48.716;8.962;2023-01-01T04:14:31;7.10;;;2.95;;
71104;SDS011;58760;48.716;8.962;2023-01-01T04:16:57;6.60;;;3.33;;
71104;SDS011;58760;48.716;8.962;2023-01-01T04:19:24;7.47;;;3.53;;
71104;SDS011;58760;48.716;8.962;2023-01-01T04:21:49;7.50;;;2.97;;
71104;SDS011;58760;48.716;8.962;2023-01-01T04:24:15;8.32;;;3.15;;
71104;SDS011;58760;48.716;8.962;2023-01-01T04:26:40;6.13;;;3.10;;
71104;SDS011;58760;48.716;8.962;2023-01-01T04:29:06;7.00;;;2.80;;
71104;SDS011;58760;48.716;8.962;2023-01-01T04:31:32;5.95;;;2.70;;
71104;SDS011;58760;48.716;8.962;2023-01-01T04:33:58;9.20;;;2.95;;
71104;SDS011;58760;48.716;8.962;2023-01-01T04:36:23;7.25;;;3.40;;
71104;SDS011;58760;48.716;8.962;2023-01-01T04:38:48;7.47;;;3.20;;
71104;SDS011;58760;48.716;8.962;2023-01-01T04:41:14;10.18;;;3.10;;
71104;SDS011;58760;48.716;8.962;2023-01-01T04:43:39;7.95;;;3.33;;
71104;SDS011;58760;48.716;8.962;2023-01-01T04:46:05;9.45;;;3.22;;
71104;SDS011;58760;48.716;8.962;2023-01-01T04:48:30;7.63;;;3.00;;
71104;SDS011;58760;48.716;8.962;2023-01-01T04:50:57;8.30;;;3.03;;
71104;SDS011;58760;48.716;8.962;2023-01-01T04:53:25;10.43;;;3.17;;
71104;SDS011;58760;48.716;8.962;2023-01-01T04:55:53;7.97;;;2.78;;
71104;SDS011;58760;48.716;8.962;2023-01-01T04:58:18;5.85;;;2.53;;
71104;SDS011;58760;48.716;8.962;2023-01-01T05:00:47;7.53;;;2.72;;
71104;SDS011;58760;48.716;8.962;2023-01-01T05:03:14;6.40;;;2.92;;
71104;SDS011;58760;48.716;8.962;2023-01-01T05:05:39;7.65;;;2.95;;
71104;SDS011;58760;48.716;8.962;2023-01-01T05:08:04;6.78;;;3.00;;
71104;SDS011;58760;48.716;8.962;2023-01-01T05:10:30;7.00;;;2.85;;
71104;SDS011;58760;48.716;8.962;2023-01-01T05:12:55;11.43;;;3.00;;
71104;SDS011;58760;48.716;8.962;2023-01-01T05:15:20;9.82;;;2.80;;
71104;SDS011;58760;48.716;8.962;2023-01-01T05:17:46;10.57;;;3.17;;
71104;SDS011;58760;48.716;8.962;2023-01-01T05:20:11;7.28;;;3.15;;
71104;SDS011;58760;48.716;8.962;2023-01-01T05:22:36;7.85;;;2.80;;
71104;SDS011;58760;48.716;8.962;2023-01-01T05:25:02;5.80;;;2.70;;
71104;SDS011;58760;48.716;8.962;2023-01-01T05:27:27;7.43;;;2.90;;
71104;SDS011;58760;48.716;8.962;2023-01-01T05:29:53;6.32;;;2.75;;
71104;SDS011;58760;48.716;8.962;2023-01-01T05:32:18;6.80;;;2.63;;
71104;SDS011;58760;48.716;8.962;2023-01-01T05:34:43;6.00;;;2.50;;
71104;SDS011;58760;48.716;8.962;2023-01-01T05:37:09;8.23;;;2.88;;
71104;SDS011;58760;48.716;8.962;2023-01-01T05:39:34;6.05;;;2.03;;
71104;SDS011;58760;48.716;8.962;2023-01-01T05:42:01;8.13;;;2.53;;
71104;SDS011;58760;48.716;8.962;2023-01-01T05:44:26;10.23;;;2.58;;
71104;SDS011;58760;48.716;8.962;2023-01-01T05:46:52;10.90;;;2.70;;
71104;SDS011;58760;48.716;8.962;2023-01-01T05:49:17;7.10;;;2.63;;
71104;SDS011;58760;48.716;8.962;2023-01-01T05:51:42;6.63;;;2.55;;
71104;SDS011;58760;48.716;8.962;2023-01-01T05:54:08;7.28;;;2.50;;
71104;SDS011;58760;48.716;8.962;2023-01-01T05:56:34;7.78;;;2.72;;
71104;SDS011;58760;48.716;8.962;2023-01-01T05:58:59;7.38;;;2.50;;
71104;SDS011;58760;48.716;8.962;2023-01-01T06:01:25;6.18;;;2.22;;
71104;SDS011;58760;48.716;8.962;2023-01-01T06:03:53;6.63;;;2.35;;
71104;SDS011;58760;48.716;8.962;2023-01-01T06:08:50;6.90;;;2.40;;
71104;SDS011;58760;48.716;8.962;2023-01-01T06:11:16;8.25;;;2.70;;
71104;SDS011;58760;48.716;8.962;2023-01-01T06:13:42;6.65;;;2.53;;
71104;SDS011;58760;48.716;8.962;2023-01-01T06:16:08;6.55;;;2.42;;
71104;SDS011;58760;48.716;8.962;2023-01-01T06:18:34;6.97;;;2.40;;
71104;SDS011;58760;48.716;8.962;2023-01-01T06:21:04;5.85;;;2.53;;
71104;SDS011;58760;48.716;8.962;2023-01-01T06:23:30;6.72;;;2.28;;
71104;SDS011;58760;48.716;8.962;2023-01-01T06:25:56;7.35;;;2.85;;
71104;SDS011;58760;48.716;8.962;2023-01-01T06:28:21;9.45;;;2.78;;
71104;SDS011;58760;48.716;8.962;2023-01-01T06:30:46;6.28;;;2.65;;
71104;SDS011;58760;48.716;8.962;2023-01-01T06:33:12;7.88;;;2.83;;
71104;SDS011;58760;48.716;8.962;2023-01-01T06:35:37;8.43;;;2.90;;
71104;SDS011;58760;48.716;8.962;2023-01-01T06:38:02;6.72;;;2.33;;
71104;SDS011;58760;48.716;8.962;2023-01-01T06:40:28;8.70;;;2.75;;
71104;SDS011;58760;48.716;8.962;2023-01-01T06:42:54;7.68;;;3.08;;
71104;SDS011;58760;48.716;8.962;2023-01-01T06:45:19;6.47;;;2.67;;
71104;SDS011;58760;48.716;8.962;2023-01-01T06:47:44;7.25;;;3.13;;
71104;SDS011;58760;48.716;8.962;2023-01-01T06:50:10;8.80;;;2.72;;
71104;SDS011;58760;48.716;8.962;2023-01-01T06:52:35;6.63;;;2.60;;
71104;SDS011;58760;48.716;8.962;2023-01-01T06:55:00;8.68;;;2.78;;
71104;SDS011;58760;48.716;8.962;2023-01-01T06:57:26;8.05;;;2.75;;
71104;SDS011;58760;48.716;8.962;2023-01-01T06:59:51;7.63;;;2.85;;
71104;SDS011;58760;48.716;8.962;2023-01-01T07:02:17;7.28;;;3.10;;
71104;SDS011;58760;48.716;8.962;2023-01-01T07:04:42;7.10;;;3.25;;
71104;SDS011;58760;48.716;8.962;2023-01-01T07:07:07;8.27;;;3.05;;
71104;SDS011;58760;48.716;8.962;2023-01-01T07:09:33;8.85;;;2.88;;
71104;SDS011;58760;48.716;8.962;2023-01-01T07:11:58;8.48;;;3.00;;
71104;SDS011;58760;48.716;8.962;2023-01-01T07:14:24;6.47;;;2.65;;
71104;SDS011;58760;48.716;8.962;2023-01-01T07:16:49;8.95;;;3.08;;
71104;SDS011;58760;48.716;8.962;2023-01-01T07:19:14;7.72;;;3.10;;
71104;SDS011;58760;48.716;8.962;2023-01-01T07:21:41;6.22;;;2.88;;
71104;SDS011;58760;48.716;8.962;2023-01-01T07:24:13;8.40;;;3.10;;
71104;SDS011;58760;48.716;8.962;2023-01-01T07:26:40;11.13;;;3.15;;
71104;SDS011;58760;48.716;8.962;2023-01-01T07:29:06;8.50;;;2.85;;
71104;SDS011;58760;48.716;8.962;2023-01-01T07:31:35;6.40;;;2.83;;
71104;SDS011;58760;48.716;8.962;2023-01-01T07:34:02;7.13;;;3.15;;
71104;SDS011;58760;48.716;8.962;2023-01-01T07:36:27;7.32;;;3.35;;
71104;SDS011;58760;48.716;8.962;2023-01-01T07:38:53;10.05;;;2.80;;
71104;SDS011;58760;48.716;8.962;2023-01-01T07:41:18;6.10;;;2.63;;
71104;SDS011;58760;48.716;8.962;2023-01-01T07:43:43;6.63;;;3.00;;
71104;SDS011;58760;48.716;8.962;2023-01-01T07:46:12;6.43;;;2.97;;
71104;SDS011;58760;48.716;8.962;2023-01-01T07:48:40;7.22;;;2.95;;
71104;SDS011;58760;48.716;8.962;2023-01-01T07:51:06;9.13;;;3.50;;
71104;SDS011;58760;48.716;8.962;2023-01-01T07:53:31;7.38;;;2.88;;
71104;SDS011;58760;48.716;8.962;2023-01-01T07:55:56;7.85;;;3.10;;
71104;SDS011;58760;48.716;8.962;2023-01-01T07:58:22;7.88;;;3.15;;
71104;SDS011;58760;48.716;8.962;2023-01-01T08:00:47;6.72;;;2.83;;
71104;SDS011;58760;48.716;8.962;2023-01-01T08:03:13;6.93;;;3.17;;
71104;SDS011;58760;48.716;8.962;2023-01-01T08:08:05;7.43;;;3.33;;
71104;SDS011;58760;48.716;8.962;2023-01-01T08:10:30;6.22;;;3.05;;
71104;SDS011;58760;48.716;8.962;2023-01-01T08:12:59;7.85;;;3.13;;
71104;SDS011;58760;48.716;8.962;2023-01-01T08:15:25;7.82;;;3.30;;
71104;SDS011;58760;48.716;8.962;2023-01-01T08:17:54;7.15;;;3.55;;
71104;SDS011;58760;48.716;8.962;2023-01-01T08:20:21;8.18;;;3.53;;
71104;SDS011;58760;48.716;8.962;2023-01-01T08:22:46;7.30;;;3.22;;
71104;SDS011;58760;48.716;8.962;2023-01-01T08:25:12;9.18;;;3.85;;
71104;SDS011;58760;48.716;8.962;2023-01-01T08:27:37;7.75;;;3.50;;
71104;SDS011;58760;48.716;8.962;2023-01-01T08:30:03;7.45;;;3.70;;
71104;SDS011;58760;48.716;8.962;2023-01-01T08:32:29;9.65;;;3.92;;
71104;SDS011;58760;48.716;8.962;2023-01-01T08:34:54;8.88;;;3.90;;
71104;SDS011;58760;48.716;8.962;2023-01-01T08:37:19;9.02;;;4.00;;
71104;SDS011;58760;48.716;8.962;2023-01-01T08:39:47;6.57;;;3.35;;
71104;SDS011;58760;48.716;8.962;2023-01-01T08:42:14;6.68;;;3.22;;
71104;SDS011;58760;48.716;8.962;2023-01-01T08:44:39;7.50;;;3.50;;
71104;SDS011;58760;48.716;8.962;2023-01-01T08:47:04;9.18;;;3.33;;
71104;SDS011;58760;48.716;8.962;2023-01-01T08:49:30;10.93;;;4.03;;
71104;SDS011;58760;48.716;8.962;2023-01-01T08:51:55;12.27;;;4.53;;
71104;SDS011;58760;48.716;8.962;2023-01-01T08:54:21;8.15;;;3.53;;
71104;SDS011;58760;48.716;8.962;2023-01-01T08:56:46;9.70;;;4.25;;
71104;SDS011;58760;48.716;8.962;2023-01-01T08:59:11;10.30;;;4.55;;
71104;SDS011;58760;48.716;8.962;2023-01-01T09:01:37;7.40;;;3.53;;
71104;SDS011;58760;48.716;8.962;2023-01-01T09:04:02;10.45;;;3.90;;
71104;SDS011;58760;48.716;8.962;2023-01-01T09:06:27;7.50;;;3.80;;
71104;SDS011;58760;48.716;8.962;2023-01-01T09:08:53;9.13;;;3.88;;
71104;SDS011;58760;48.716;8.962;2023-01-01T09:13:48;12.35;;;4.18;;
71104;SDS011;58760;48.716;8.962;2023-01-01T09:16:13;8.50;;;4.10;;
71104;SDS011;58760;48.716;8.962;2023-01-01T09:18:39;7.47;;;3.45;;
71104;SDS011;58760;48.716;8.962;2023-01-01T09:21:04;9.45;;;4.40;;
71104;SDS011;58760;48.716;8.962;2023-01-01T09:23:30;9.30;;;4.35;;
71104;SDS011;58760;48.716;8.962;2023-01-01T09:25:55;8.85;;;4.50;;
71104;SDS011;58760;48.716;8.962;2023-01-01T09:28:27;7.70;;;3.97;;
71104;SDS011;58760;48.716;8.962;2023-01-01T09:33:18;9.93;;;4.30;;
71104;SDS011;58760;48.716;8.962;2023-01-01T09:35:44;8.68;;;3.58;;
71104;SDS011;58760;48.716;8.962;2023-01-01T09:38:09;12.07;;;4.72;;
71104;SDS011;58760;48.716;8.962;2023-01-01T09:43:13;8.57;;;3.90;;
71104;SDS011;58760;48.716;8.962;2023-01-01T09:46:02;8.48;;;3.83;;
71104;SDS011;58760;48.716;8.962;2023-01-01T09:48:33;11.93;;;4.28;;
71104;SDS011;58760;48.716;8.962;2023-01-01T09:51:02;9.88;;;4.15;;
71104;SDS011;58760;48.716;8.962;2023-01-01T09:53:34;12.45;;;4.40;;
71104;SDS011;58760;48.716;8.962;2023-01-01T09:56:08;7.35;;;4.03;;
71104;SDS011;58760;48.716;8.962;2023-01-01T09:58:38;10.75;;;4.65;;
71104;SDS011;58760;48.716;8.962;2023-01-01T10:04:00;8.40;;;4.32;;
71104;SDS011;58760;48.716;8.962;2023-01-01T10:07:02;9.50;;;4.50;;
71104;SDS011;58760;48.716;8.962;2023-01-01T10:09:40;13.00;;;4.25;;
71104;SDS011;58760;48.716;8.962;2023-01-01T10:12:11;10.38;;;4.82;;
71104;SDS011;58760;48.716;8.962;2023-01-01T10:14:45;9.20;;;4.18;;
71104;SDS011;58760;48.716;8.962;2023-01-01T10:17:16;8.48;;;4.10;;
71104;SDS011;58760;48.716;8.962;2023-01-01T10:19:48;9.80;;;4.63;;
71104;SDS011;58760;48.716;8.962;2023-01-01T10:22:31;9.57;;;4.05;;
71104;SDS011;58760;48.716;8.962;2023-01-01T10:29:55;12.05;;;4.10;;
71104;SDS011;58760;48.716;8.962;2023-01-01T10:32:34;9.68;;;4.30;;
71104;SDS011;58760;48.716;8.962;2023-01-01T10:35:11;8.75;;;3.92;;
71104;SDS011;58760;48.716;8.962;2023-01-01T10:37:39;8.63;;;4.20;;
71104;SDS011;58760;48.716;8.962;2023-01-01T10:40:06;10.38;;;4.18;;
71104;SDS011;58760;48.716;8.962;2023-01-01T10:42:37;8.23;;;3.70;;
71104;SDS011;58760;48.716;8.962;2023-01-01T10:45:02;7.93;;;3.45;;
71104;SDS011;58760;48.716;8.962;2023-01-01T10:47:29;9.98;;;4.35;;
71104;SDS011;58760;48.716;8.962;2023-01-01T10:49:58;8.45;;;4.07;;
71104;SDS011;58760;48.716;8.962;2023-01-01T10:52:28;6.82;;;3.17;;
71104;SDS011;58760;48.716;8.962;2023-01-01T10:54:58;9.90;;;3.92;;
71104;SDS011;58760;48.716;8.962;2023-01-01T10:57:31;9.35;;;3.58;;
71104;SDS011;58760;48.716;8.962;2023-01-01T11:08:31;12.82;;;3.65;;
71104;SDS011;58760;48.716;8.962;2023-01-01T11:10:59;12.93;;;3.70;;
71104;SDS011;58760;48.716;8.962;2023-01-01T11:13:27;8.25;;;3.33;;
71104;SDS011;58760;48.716;8.962;2023-01-01T11:15:54;8.23;;;3.15;;
71104;SDS011;58760;48.716;8.962;2023-01-01T11:20:51;9.38;;;3.40;;
71104;SDS011;58760;48.716;8.962;2023-01-01T11:23:23;7.18;;;3.30;;
71104;SDS011;58760;48.716;8.962;2023-01-01T11:26:05;7.90;;;3.45;;
71104;SDS011;58760;48.716;8.962;2023-01-01T11:28:37;7.75;;;3.58;;
71104;SDS011;58760;48.716;8.962;2023-01-01T11:33:38;9.48;;;2.80;;
71104;SDS011;58760;48.716;8.962;2023-01-01T11:36:24;8.02;;;2.80;;
71104;SDS011;58760;48.716;8.962;2023-01-01T11:39:11;7.70;;;3.20;;
71104;SDS011;58760;48.716;8.962;2023-01-01T11:41:45;6.68;;;2.90;;
71104;SDS011;58760;48.716;8.962;2023-01-01T11:44:20;8.77;;;3.10;;
71104;SDS011;58760;48.716;8.962;2023-01-01T11:46:47;7.22;;;2.80;;
71104;SDS011;58760;48.716;8.962;2023-01-01T11:49:13;9.07;;;2.80;;
71104;SDS011;58760;48.716;8.962;2023-01-01T11:51:44;7.00;;;2.42;;
71104;SDS011;58760;48.716;8.962;2023-01-01T11:57:13;7.95;;;2.72;;
71104;SDS011;58760;48.716;8.962;2023-01-01T11:59:49;9.45;;;2.80;;
71104;SDS011;58760;48.716;8.962;2023-01-01T12:02:31;9.32;;;2.95;;
71104;SDS011;58760;48.716;8.962;2023-01-01T12:05:35;9.07;;;3.00;;
71104;SDS011;58760;48.716;8.962;2023-01-01T12:08:11;8.40;;;2.55;;
71104;SDS011;58760;48.716;8.962;2023-01-01T12:10:45;12.80;;;2.67;;
71104;SDS011;58760;48.716;8.962;2023-01-01T12:13:17;6.47;;;2.55;;
71104;SDS011;58760;48.716;8.962;2023-01-01T12:18:36;7.07;;;2.60;;
71104;SDS011;58760;48.716;8.962;2023-01-01T12:21:18;7.13;;;2.45;;
71104;SDS011;58760;48.716;8.962;2023-01-01T12:23:49;8.18;;;2.35;;
71104;SDS011;58760;48.716;8.962;2023-01-01T12:29:05;6.97;;;2.30;;
71104;SDS011;58760;48.716;8.962;2023-01-01T12:34:49;5.95;;;2.10;;
71104;SDS011;58760;48.716;8.962;2023-01-01T13:01:04;5.15;;;2.10;;
71104;SDS011;58760;48.716;8.962;2023-01-01T13:03:36;7.03;;;2.00;;
71104;SDS011;58760;48.716;8.962;2023-01-01T13:06:10;7.10;;;2.15;;
71104;SDS011;58760;48.716;8.962;2023-01-01T13:08:37;6.35;;;2.00;;
71104;SDS011;58760;48.716;8.962;2023-01-01T13:11:06;6.07;;;1.90;;
71104;SDS011;58760;48.716;8.962;2023-01-01T13:13:32;7.05;;;2.05;;
71104;SDS011;58760;48.716;8.962;2023-01-01T13:15:57;7.13;;;2.28;;
71104;SDS011;58760;48.716;8.962;2023-01-01T13:18:24;7.22;;;2.22;;
71104;SDS011;58760;48.716;8.962;2023-01-01T13:42:39;10.38;;;2.20;;
71104;SDS011;58760;48.716;8.962;2023-01-01T13:45:33;6.50;;;1.80;;
71104;SDS011;58760;48.716;8.962;2023-01-01T13:48:11;5.95;;;2.10;;
71104;SDS011;58760;48.716;8.962;2023-01-01T13:55:54;7.40;;;2.22;;
71104;SDS011;58760;48.716;8.962;2023-01-01T14:01:56;6.28;;;1.80;;
71104;SDS011;58760;48.716;8.962;2023-01-01T14:04:30;6.80;;;1.90;;
71104;SDS011;58760;48.716;8.962;2023-01-01T14:07:11;9.35;;;2.10;;
71104;SDS011;58760;48.716;8.962;2023-01-01T14:09:44;5.60;;;1.70;;
71104;SDS011;58760;48.716;8.962;2023-01-01T14:12:19;7.47;;;2.20;;
71104;SDS011;58760;48.716;8.962;2023-01-01T14:14:45;7.97;;;1.98;;
71104;SDS011;58760;48.716;8.962;2023-01-01T14:17:12;7.78;;;2.10;;
71104;SDS011;58760;48.716;8.962;2023-01-01T14:19:39;15.45;;;2.08;;
71104;SDS011;58760;48.716;8.962;2023-01-01T14:22:09;7.30;;;1.85;;
71104;SDS011;58760;48.716;8.962;2023-01-01T14:24:42;13.30;;;2.45;;
71104;SDS011;58760;48.716;8.962;2023-01-01T14:27:14;5.10;;;1.73;;
71104;SDS011;58760;48.716;8.962;2023-01-01T14:29:44;6.22;;;2.20;;
71104;SDS011;58760;48.716;8.962;2023-01-01T14:32:13;10.05;;;2.08;;
71104;SDS011;58760;48.716;8.962;2023-01-01T14:34:45;9.18;;;2.10;;
71104;SDS011;58760;48.716;8.962;2023-01-01T14:37:22;7.40;;;2.05;;
71104;SDS011;58760;48.716;8.962;2023-01-01T14:40:10;7.50;;;1.83;;
71104;SDS011;58760;48.716;8.962;2023-01-01T14:42:41;7.18;;;1.80;;
71104;SDS011;58760;48.716;8.962;2023-01-01T14:45:14;7.32;;;1.90;;
71104;SDS011;58760;48.716;8.962;2023-01-01T14:47:43;5.03;;;1.70;;
71104;SDS011;58760;48.716;8.962;2023-01-01T14:50:21;6.97;;;2.10;;
71104;SDS011;58760;48.716;8.962;2023-01-01T14:53:06;6.93;;;2.22;;
71104;SDS011;58760;48.716;8.962;2023-01-01T14:55:40;10.60;;;2.25;;
71104;SDS011;58760;48.716;8.962;2023-01-01T14:58:12;6.10;;;1.90;;
71104;SDS011;58760;48.716;8.962;2023-01-01T15:00:42;7.95;;;2.53;;
71104;SDS011;58760;48.716;8.962;2023-01-01T15:03:14;5.93;;;2.20;;
71104;SDS011;58760;48.716;8.962;2023-01-01T15:05:42;15.48;;;2.30;;
71104;SDS011;58760;48.716;8.962;2023-01-01T15:08:22;7.65;;;2.28;;
71104;SDS011;58760;48.716;8.962;2023-01-01T15:10:49;14.15;;;2.35;;
71104;SDS011;58760;48.716;8.962;2023-01-01T15:13:16;7.65;;;2.00;;
71104;SDS011;58760;48.716;8.962;2023-01-01T15:15:45;5.53;;;1.98;;
71104;SDS011;58760;48.716;8.962;2023-01-01T15:23:50;9.70;;;2.40;;
71104;SDS011;58760;48.716;8.962;2023-01-01T15:29:15;9.38;;;2.58;;
71104;SDS011;58760;48.716;8.962;2023-01-01T15:31:46;8.93;;;2.45;;
71104;SDS011;58760;48.716;8.962;2023-01-01T15:34:21;8.13;;;3.17;;
71104;SDS011;58760;48.716;8.962;2023-01-01T15:36:49;8.95;;;3.47;;
71104;SDS011;58760;48.716;8.962;2023-01-01T15:39:16;12.00;;;3.53;;
71104;SDS011;58760;48.716;8.962;2023-01-01T15:44:19;9.60;;;4.30;;
71104;SDS011;58760;48.716;8.962;2023-01-01T15:46:49;9.63;;;4.10;;
71104;SDS011;58760;48.716;8.962;2023-01-01T15:49:36;12.00;;;3.90;;
71104;SDS011;58760;48.716;8.962;2023-01-01T15:52:03;12.13;;;3.78;;
71104;SDS011;58760;48.716;8.962;2023-01-01T15:54:34;13.40;;;4.25;;
71104;SDS011;58760;48.716;8.962;2023-01-01T15:57:08;9.75;;;3.80;;
71104;SDS011;58760;48.716;8.962;2023-01-01T15:59:41;11.45;;;3.42;;
71104;SDS011;58760;48.716;8.962;2023-01-01T16:07:21;9.38;;;2.50;;
71104;SDS011;58760;48.716;8.962;2023-01-01T16:09:51;8.35;;;2.58;;
71104;SDS011;58760;48.716;8.962;2023-01-01T16:12:18;10.57;;;2.50;;
71104;SDS011;58760;48.716;8.962;2023-01-01T16:14:44;7.35;;;2.20;;
71104;SDS011;58760;48.716;8.962;2023-01-01T16:17:14;8.10;;;2.70;;
71104;SDS011;58760;48.716;8.962;2023-01-01T16:19:41;8.50;;;3.10;;
71104;SDS011;58760;48.716;8.962;2023-01-01T16:22:09;9.48;;;2.45;;
71104;SDS011;58760;48.716;8.962;2023-01-01T16:24:37;7.55;;;2.33;;
71104;SDS011;58760;48.716;8.962;2023-01-01T16:27:03;6.10;;;2.38;;
71104;SDS011;58760;48.716;8.962;2023-01-01T16:29:28;9.32;;;2.60;;
71104;SDS011;58760;48.716;8.962;2023-01-01T16:31:53;6.57;;;2.70;;
71104;SDS011;58760;48.716;8.962;2023-01-01T16:34:19;10.20;;;2.67;;
71104;SDS011;58760;48.716;8.962;2023-01-01T16:36:44;7.85;;;2.42;;
71104;SDS011;58760;48.716;8.962;2023-01-01T16:39:10;8.13;;;2.70;;
71104;SDS011;58760;48.716;8.962;2023-01-01T16:41:36;9.13;;;2.78;;
71104;SDS011;58760;48.716;8.962;2023-01-01T16:44:03;6.78;;;2.75;;
71104;SDS011;58760;48.716;8.962;2023-01-01T16:46:29;13.25;;;3.22;;
71104;SDS011;58760;48.716;8.962;2023-01-01T16:48:54;9.32;;;3.00;;
71104;SDS011;58760;48.716;8.962;2023-01-01T16:51:24;12.40;;;2.83;;
71104;SDS011;58760;48.716;8.962;2023-01-01T16:56:19;8.60;;;3.03;;
71104;SDS011;58760;48.716;8.962;2023-01-01T16:58:45;7.57;;;3.13;;
71104;SDS011;58760;48.716;8.962;2023-01-01T17:01:10;12.18;;;3.30;;
71104;SDS011;58760;48.716;8.962;2023-01-01T17:03:36;9.25;;;3.05;;
71104;SDS011;58760;48.716;8.962;2023-01-01T17:06:05;11.15;;;3.10;;
71104;SDS011;58760;48.716;8.962;2023-01-01T17:08:33;10.43;;;3.47;;
71104;SDS011;58760;48.716;8.962;2023-01-01T17:11:00;12.60;;;3.38;;
71104;SDS011;58760;48.716;8.962;2023-01-01T17:13:31;10.50;;;3.42;;
71104;SDS011;58760;48.716;8.962;2023-01-01T17:15:57;9.32;;;3.10;;
71104;SDS011;58760;48.716;8.962;2023-01-01T17:18:23;9.60;;;3.58;;
71104;SDS011;58760;48.716;8.962;2023-01-01T17:20:48;8.95;;;3.78;;
71104;SDS011;58760;48.716;8.962;2023-01-01T17:23:14;8.60;;;3.42;;
71104;SDS011;58760;48.716;8.962;2023-01-01T17:25:39;11.02;;;3.78;;
71104;SDS011;58760;48.716;8.962;2023-01-01T17:28:04;9.43;;;2.95;;
71104;SDS011;58760;48.716;8.962;2023-01-01T17:30:30;9.20;;;3.67;;